RPC9307 RPMD-RPMZ
Flight info
| Callsign | RPC9307 |
|---|---|
| Flight time | 1h 30m |
| Altitude | 4000 |
| Route | LATIA W10A COT W10 GOSTO |
| Aircraft | BE58/L-SDFGRY/C |
Departure
| Time | 2026-04-15 08:41 |
|---|---|
| Airport | Francisco Bangoy International Airport (RPMD) |
Arrival
| Time | 2026-04-15 10:11 |
|---|---|
| Airport | Zamboanga International Airport (RPMZ) |
| Time | Latitude | Longitude | Altitude | Speed | Heading |
|---|---|---|---|---|---|
| 2026-04-15 08:32 | 7.12805 | 125.64371 | 95 ft | 0 kts | 320° |
| 2026-04-15 08:37 | 7.12808 | 125.64369 | 95 ft | 1 kts | 341° |
| 2026-04-15 08:37 | 7.12810 | 125.64380 | 95 ft | 5 kts | 155° |
| 2026-04-15 08:38 | 7.12772 | 125.64399 | 95 ft | 8 kts | 140° |
| 2026-04-15 08:38 | 7.12702 | 125.64444 | 95 ft | 15 kts | 149° |
| 2026-04-15 08:38 | 7.12611 | 125.64519 | 95 ft | 18 kts | 139° |
| 2026-04-15 08:38 | 7.12488 | 125.64500 | 94 ft | 18 kts | 229° |
| 2026-04-15 08:39 | 7.12429 | 125.64431 | 94 ft | 20 kts | 229° |
| 2026-04-15 08:39 | 7.12329 | 125.64317 | 95 ft | 24 kts | 229° |
| 2026-04-15 08:39 | 7.12209 | 125.64200 | 95 ft | 20 kts | 227° |
| 2026-04-15 08:39 | 7.12203 | 125.64158 | 95 ft | 9 kts | 57° |
| 2026-04-15 08:40 | 7.12284 | 125.64263 | 95 ft | 36 kts | 49° |
| 2026-04-15 08:40 | 7.12600 | 125.64626 | 95 ft | 98 kts | 49° |
| 2026-04-15 08:40 | 7.13109 | 125.65220 | 205 ft | 120 kts | 46° |
| 2026-04-15 08:40 | 7.13722 | 125.65830 | 438 ft | 131 kts | 44° |
| 2026-04-15 08:41 | 7.14445 | 125.66484 | 745 ft | 144 kts | 34° |
| 2026-04-15 08:41 | 7.15451 | 125.66699 | 984 ft | 157 kts | 352° |
| 2026-04-15 08:41 | 7.16381 | 125.66123 | 1337 ft | 157 kts | 301° |
| 2026-04-15 08:41 | 7.16652 | 125.65178 | 2014 ft | 131 kts | 261° |
| 2026-04-15 08:42 | 7.16410 | 125.64312 | 2445 ft | 132 kts | 250° |
| 2026-04-15 08:42 | 7.16099 | 125.63422 | 2779 ft | 140 kts | 251° |
| 2026-04-15 08:42 | 7.15761 | 125.62471 | 3018 ft | 145 kts | 251° |
| 2026-04-15 08:42 | 7.15416 | 125.61510 | 3258 ft | 146 kts | 251° |
| 2026-04-15 08:43 | 7.15063 | 125.60529 | 3459 ft | 152 kts | 251° |
| 2026-04-15 08:43 | 7.14695 | 125.59511 | 3658 ft | 156 kts | 251° |
| 2026-04-15 08:43 | 7.14326 | 125.58481 | 3859 ft | 157 kts | 252° |
| 2026-04-15 08:43 | 7.13950 | 125.57431 | 4023 ft | 163 kts | 252° |
| 2026-04-15 08:44 | 7.13549 | 125.56311 | 4038 ft | 175 kts | 252° |
| 2026-04-15 08:44 | 7.13124 | 125.55123 | 4034 ft | 184 kts | 251° |
| 2026-04-15 08:44 | 7.12681 | 125.53892 | 4037 ft | 190 kts | 251° |
| 2026-04-15 08:44 | 7.12230 | 125.52634 | 4034 ft | 193 kts | 251° |
| 2026-04-15 08:45 | 7.11776 | 125.51369 | 4032 ft | 196 kts | 251° |
| 2026-04-15 08:45 | 7.11311 | 125.50072 | 4031 ft | 198 kts | 251° |
| 2026-04-15 08:45 | 7.10835 | 125.48743 | 4039 ft | 200 kts | 251° |
| 2026-04-15 08:45 | 7.10364 | 125.47431 | 4032 ft | 201 kts | 250° |
| 2026-04-15 08:46 | 7.09886 | 125.46102 | 4032 ft | 202 kts | 251° |
| 2026-04-15 08:46 | 7.09409 | 125.44771 | 4036 ft | 202 kts | 250° |
| 2026-04-15 08:46 | 7.08930 | 125.43439 | 4037 ft | 202 kts | 250° |
| 2026-04-15 08:46 | 7.08470 | 125.42160 | 4364 ft | 183 kts | 251° |
| 2026-04-15 08:47 | 7.08060 | 125.41020 | 4822 ft | 165 kts | 251° |
| 2026-04-15 08:47 | 7.07683 | 125.39971 | 5216 ft | 157 kts | 252° |
| 2026-04-15 08:47 | 7.07307 | 125.38922 | 5457 ft | 160 kts | 252° |
| 2026-04-15 08:47 | 7.06928 | 125.37868 | 5725 ft | 160 kts | 252° |
| 2026-04-15 08:48 | 7.06556 | 125.36813 | 5986 ft | 159 kts | 253° |
| 2026-04-15 08:48 | 7.06288 | 125.35742 | 6199 ft | 158 kts | 262° |
| 2026-04-15 08:48 | 7.06219 | 125.34670 | 6416 ft | 156 kts | 272° |
| 2026-04-15 08:48 | 7.06242 | 125.33577 | 6671 ft | 156 kts | 277° |
| 2026-04-15 08:49 | 7.06259 | 125.32490 | 6941 ft | 155 kts | 269° |
| 2026-04-15 08:49 | 7.06112 | 125.31408 | 7176 ft | 158 kts | 259° |
| 2026-04-15 08:49 | 7.05857 | 125.30339 | 7378 ft | 159 kts | 258° |
| 2026-04-15 08:49 | 7.05464 | 125.29273 | 7523 ft | 165 kts | 247° |
| 2026-04-15 08:50 | 7.04952 | 125.28242 | 7737 ft | 164 kts | 244° |
| 2026-04-15 08:50 | 7.04351 | 125.27258 | 7870 ft | 167 kts | 237° |
| 2026-04-15 08:50 | 7.03682 | 125.26311 | 8053 ft | 168 kts | 234° |
| 2026-04-15 08:50 | 7.02950 | 125.25403 | 8337 ft | 160 kts | 231° |
| 2026-04-15 08:51 | 7.02110 | 125.24538 | 8093 ft | 188 kts | 227° |
| 2026-04-15 08:51 | 7.01141 | 125.23586 | 7892 ft | 198 kts | 226° |
| 2026-04-15 08:51 | 7.00199 | 125.22598 | 8007 ft | 192 kts | 230° |
| 2026-04-15 08:51 | 6.99310 | 125.21560 | 7920 ft | 199 kts | 238° |
| 2026-04-15 08:52 | 6.98982 | 125.20243 | 7937 ft | 194 kts | 279° |
| 2026-04-15 08:52 | 6.99274 | 125.18935 | 8007 ft | 190 kts | 284° |
| 2026-04-15 08:52 | 6.99418 | 125.17610 | 8030 ft | 192 kts | 272° |
| 2026-04-15 08:52 | 6.99210 | 125.16274 | 8024 ft | 195 kts | 255° |
| 2026-04-15 08:53 | 6.98692 | 125.14866 | 8028 ft | 195 kts | 250° |
| 2026-04-15 08:53 | 6.98255 | 125.13734 | 8033 ft | 193 kts | 251° |
| 2026-04-15 08:53 | 6.97796 | 125.12471 | 8024 ft | 192 kts | 252° |
| 2026-04-15 08:53 | 6.97346 | 125.11210 | 8023 ft | 191 kts | 252° |
| 2026-04-15 08:54 | 6.96894 | 125.09953 | 8021 ft | 191 kts | 252° |
| 2026-04-15 08:54 | 6.96775 | 125.08655 | 8022 ft | 186 kts | 287° |
| 2026-04-15 08:54 | 6.97471 | 125.07598 | 8025 ft | 182 kts | 317° |
| 2026-04-15 08:54 | 6.98273 | 125.06606 | 8029 ft | 184 kts | 305° |
| 2026-04-15 08:55 | 6.98825 | 125.05437 | 8025 ft | 186 kts | 289° |
| 2026-04-15 08:55 | 6.99141 | 125.04184 | 8028 ft | 187 kts | 285° |
| 2026-04-15 08:55 | 6.99427 | 125.02903 | 8022 ft | 188 kts | 284° |
| 2026-04-15 08:55 | 6.99701 | 125.01614 | 8021 ft | 188 kts | 284° |
| 2026-04-15 08:56 | 6.99973 | 125.00319 | 8019 ft | 189 kts | 284° |
| 2026-04-15 08:56 | 7.00246 | 124.99023 | 8017 ft | 190 kts | 284° |
| 2026-04-15 08:56 | 7.00520 | 124.97722 | 8019 ft | 190 kts | 285° |
| 2026-04-15 08:56 | 7.00797 | 124.96414 | 8017 ft | 191 kts | 284° |
| 2026-04-15 08:57 | 7.01075 | 124.95103 | 8018 ft | 192 kts | 284° |
| 2026-04-15 08:57 | 7.01351 | 124.93793 | 8012 ft | 191 kts | 284° |
| 2026-04-15 08:57 | 7.01628 | 124.92487 | 8011 ft | 191 kts | 284° |
| 2026-04-15 08:57 | 7.01903 | 124.91190 | 8009 ft | 191 kts | 283° |
| 2026-04-15 08:58 | 7.02177 | 124.89884 | 8015 ft | 191 kts | 284° |
| 2026-04-15 08:58 | 7.02734 | 124.87253 | 8008 ft | 192 kts | 284° |
| 2026-04-15 08:58 | 7.03014 | 124.85931 | 8009 ft | 193 kts | 284° |
| 2026-04-15 08:59 | 7.03260 | 124.84596 | 8005 ft | 194 kts | 281° |
| 2026-04-15 08:59 | 7.03071 | 124.83262 | 8001 ft | 197 kts | 247° |
| 2026-04-15 08:59 | 7.02507 | 124.82012 | 8005 ft | 196 kts | 247° |
| 2026-04-15 08:59 | 7.01954 | 124.80756 | 8007 ft | 196 kts | 247° |
| 2026-04-15 09:00 | 7.01398 | 124.79500 | 8009 ft | 196 kts | 247° |
| 2026-04-15 09:00 | 7.00841 | 124.78242 | 8010 ft | 197 kts | 247° |
| 2026-04-15 09:00 | 7.00283 | 124.76981 | 8012 ft | 197 kts | 247° |
| 2026-04-15 09:00 | 6.99732 | 124.75736 | 8010 ft | 198 kts | 247° |
| 2026-04-15 09:01 | 6.99171 | 124.74469 | 8008 ft | 198 kts | 247° |
| 2026-04-15 09:01 | 6.98613 | 124.73201 | 8013 ft | 198 kts | 248° |
| 2026-04-15 09:01 | 6.98220 | 124.71875 | 8007 ft | 197 kts | 262° |
| 2026-04-15 09:01 | 6.98124 | 124.70504 | 8009 ft | 196 kts | 274° |
| 2026-04-15 09:02 | 6.98366 | 124.69170 | 8009 ft | 193 kts | 291° |
| 2026-04-15 09:02 | 6.98823 | 124.67902 | 8008 ft | 192 kts | 294° |
| 2026-04-15 09:02 | 6.99295 | 124.66648 | 8010 ft | 192 kts | 294° |
| 2026-04-15 09:02 | 6.99774 | 124.65394 | 8010 ft | 191 kts | 293° |
| 2026-04-15 09:03 | 7.00255 | 124.64139 | 8008 ft | 193 kts | 294° |
| 2026-04-15 09:03 | 7.00736 | 124.62881 | 8011 ft | 192 kts | 294° |
| 2026-04-15 09:03 | 7.01217 | 124.61619 | 8009 ft | 193 kts | 294° |
| 2026-04-15 09:03 | 7.01700 | 124.60355 | 8015 ft | 194 kts | 293° |
| 2026-04-15 09:04 | 7.02184 | 124.59088 | 8015 ft | 194 kts | 294° |
| 2026-04-15 09:04 | 7.02669 | 124.57819 | 8017 ft | 194 kts | 294° |
| 2026-04-15 09:04 | 7.03148 | 124.56562 | 8010 ft | 195 kts | 293° |
| 2026-04-15 09:04 | 7.03636 | 124.55283 | 8012 ft | 196 kts | 294° |
| 2026-04-15 09:05 | 7.04125 | 124.54002 | 8014 ft | 196 kts | 294° |
| 2026-04-15 09:05 | 7.04616 | 124.52718 | 8016 ft | 197 kts | 295° |
| 2026-04-15 09:05 | 7.05107 | 124.51430 | 8017 ft | 197 kts | 294° |
| 2026-04-15 09:05 | 7.05598 | 124.50145 | 8021 ft | 197 kts | 294° |
| 2026-04-15 09:06 | 7.06089 | 124.48859 | 8020 ft | 197 kts | 294° |
| 2026-04-15 09:06 | 7.06579 | 124.47572 | 8022 ft | 196 kts | 294° |
| 2026-04-15 09:06 | 7.07069 | 124.46290 | 8027 ft | 197 kts | 294° |
| 2026-04-15 09:06 | 7.07560 | 124.45003 | 8025 ft | 196 kts | 294° |
| 2026-04-15 09:07 | 7.08050 | 124.43722 | 8026 ft | 196 kts | 294° |
| 2026-04-15 09:07 | 7.08539 | 124.42440 | 8028 ft | 196 kts | 294° |
| 2026-04-15 09:07 | 7.09026 | 124.41162 | 8025 ft | 195 kts | 294° |
| 2026-04-15 09:07 | 7.09513 | 124.39887 | 8031 ft | 195 kts | 294° |
| 2026-04-15 09:08 | 7.09998 | 124.38614 | 8029 ft | 194 kts | 294° |
| 2026-04-15 09:08 | 7.10475 | 124.37362 | 8031 ft | 193 kts | 294° |
| 2026-04-15 09:08 | 7.10958 | 124.36100 | 8036 ft | 193 kts | 293° |
| 2026-04-15 09:08 | 7.11443 | 124.34831 | 8038 ft | 193 kts | 294° |
| 2026-04-15 09:09 | 7.11925 | 124.33563 | 8035 ft | 194 kts | 293° |
| 2026-04-15 09:09 | 7.12408 | 124.32298 | 8035 ft | 193 kts | 294° |
| 2026-04-15 09:09 | 7.12892 | 124.31032 | 8035 ft | 194 kts | 294° |
| 2026-04-15 09:09 | 7.13375 | 124.29768 | 8039 ft | 193 kts | 294° |
| 2026-04-15 09:10 | 7.13858 | 124.28499 | 8039 ft | 194 kts | 294° |
| 2026-04-15 09:10 | 7.14352 | 124.27247 | 8043 ft | 194 kts | 296° |
| 2026-04-15 09:10 | 7.14876 | 124.25987 | 8044 ft | 194 kts | 297° |
| 2026-04-15 09:10 | 7.15399 | 124.24729 | 8044 ft | 194 kts | 296° |
| 2026-04-15 09:11 | 7.15923 | 124.23473 | 8047 ft | 194 kts | 295° |
| 2026-04-15 09:11 | 7.16446 | 124.22218 | 8049 ft | 194 kts | 296° |
| 2026-04-15 09:11 | 7.16916 | 124.20938 | 8042 ft | 197 kts | 283° |
| 2026-04-15 09:11 | 7.16798 | 124.19563 | 8036 ft | 201 kts | 251° |
| 2026-04-15 09:12 | 7.15992 | 124.18420 | 8039 ft | 203 kts | 221° |
| 2026-04-15 09:12 | 7.15005 | 124.17439 | 8043 ft | 202 kts | 236° |
| 2026-04-15 09:12 | 7.14474 | 124.16154 | 8045 ft | 198 kts | 261° |
| 2026-04-15 09:12 | 7.14270 | 124.14787 | 8042 ft | 197 kts | 266° |
| 2026-04-15 09:13 | 7.14124 | 124.13419 | 8048 ft | 197 kts | 267° |
| 2026-04-15 09:13 | 7.13988 | 124.12044 | 8049 ft | 197 kts | 266° |
| 2026-04-15 09:13 | 7.13847 | 124.10673 | 8051 ft | 198 kts | 266° |
| 2026-04-15 09:13 | 7.13704 | 124.09291 | 8048 ft | 199 kts | 266° |
| 2026-04-15 09:14 | 7.13564 | 124.07903 | 8050 ft | 200 kts | 267° |
| 2026-04-15 09:14 | 7.13427 | 124.06507 | 8049 ft | 200 kts | 267° |
| 2026-04-15 09:14 | 7.13292 | 124.05111 | 8052 ft | 200 kts | 268° |
| 2026-04-15 09:14 | 7.13159 | 124.03722 | 8049 ft | 199 kts | 267° |
| 2026-04-15 09:15 | 7.13026 | 124.02337 | 8047 ft | 198 kts | 267° |
| 2026-04-15 09:15 | 7.12897 | 124.00955 | 8045 ft | 198 kts | 270° |
| 2026-04-15 09:15 | 7.13214 | 123.99673 | 8041 ft | 191 kts | 304° |
| 2026-04-15 09:15 | 7.13912 | 123.98537 | 8047 ft | 191 kts | 299° |
| 2026-04-15 09:16 | 7.14373 | 123.97275 | 8048 ft | 193 kts | 288° |
| 2026-04-15 09:16 | 7.14541 | 123.95930 | 8048 ft | 195 kts | 271° |
| 2026-04-15 09:16 | 7.14457 | 123.94562 | 8049 ft | 195 kts | 268° |
| 2026-04-15 09:16 | 7.14346 | 123.93198 | 8051 ft | 195 kts | 268° |
| 2026-04-15 09:17 | 7.14227 | 123.91836 | 8047 ft | 195 kts | 268° |
| 2026-04-15 09:17 | 7.14108 | 123.90472 | 8048 ft | 195 kts | 268° |
| 2026-04-15 09:17 | 7.13989 | 123.89127 | 8051 ft | 195 kts | 268° |
| 2026-04-15 09:17 | 7.13871 | 123.87768 | 8050 ft | 195 kts | 268° |
| 2026-04-15 09:18 | 7.13753 | 123.86403 | 8049 ft | 195 kts | 269° |
| 2026-04-15 09:18 | 7.13635 | 123.85038 | 8049 ft | 195 kts | 268° |
| 2026-04-15 09:18 | 7.13515 | 123.83670 | 8053 ft | 196 kts | 268° |
| 2026-04-15 09:18 | 7.13396 | 123.82302 | 8053 ft | 196 kts | 267° |
| 2026-04-15 09:19 | 7.13277 | 123.80934 | 8053 ft | 196 kts | 268° |
| 2026-04-15 09:19 | 7.13158 | 123.79567 | 8052 ft | 196 kts | 267° |
| 2026-04-15 09:19 | 7.13041 | 123.78214 | 8052 ft | 196 kts | 268° |
| 2026-04-15 09:19 | 7.12921 | 123.76841 | 8051 ft | 196 kts | 268° |
| 2026-04-15 09:20 | 7.12802 | 123.75472 | 8048 ft | 196 kts | 267° |
| 2026-04-15 09:20 | 7.12684 | 123.74104 | 8050 ft | 195 kts | 267° |
| 2026-04-15 09:20 | 7.12569 | 123.72744 | 8050 ft | 195 kts | 268° |
| 2026-04-15 09:20 | 7.12456 | 123.71384 | 8050 ft | 195 kts | 268° |
| 2026-04-15 09:21 | 7.12343 | 123.70026 | 8049 ft | 195 kts | 268° |
| 2026-04-15 09:21 | 7.12229 | 123.68667 | 8049 ft | 194 kts | 268° |
| 2026-04-15 09:21 | 7.12113 | 123.67306 | 8048 ft | 194 kts | 268° |
| 2026-04-15 09:21 | 7.11997 | 123.65946 | 8048 ft | 194 kts | 267° |
| 2026-04-15 09:22 | 7.11880 | 123.64589 | 8048 ft | 195 kts | 267° |
| 2026-04-15 09:22 | 7.11763 | 123.63231 | 8052 ft | 195 kts | 267° |
| 2026-04-15 09:22 | 7.11685 | 123.62328 | 8050 ft | 195 kts | 268° |
| 2026-04-15 09:22 | 7.11530 | 123.60505 | 8052 ft | 195 kts | 268° |
| 2026-04-15 09:23 | 7.11415 | 123.59159 | 8054 ft | 195 kts | 267° |
| 2026-04-15 09:23 | 7.11299 | 123.57796 | 8052 ft | 195 kts | 268° |
| 2026-04-15 09:23 | 7.11181 | 123.56436 | 8054 ft | 195 kts | 268° |
| 2026-04-15 09:23 | 7.11103 | 123.55538 | 8054 ft | 195 kts | 268° |
| 2026-04-15 09:24 | 7.10947 | 123.53718 | 8054 ft | 195 kts | 267° |
| 2026-04-15 09:24 | 7.10828 | 123.52361 | 8053 ft | 195 kts | 267° |
| 2026-04-15 09:24 | 7.10710 | 123.51005 | 8050 ft | 194 kts | 267° |
| 2026-04-15 09:24 | 7.10629 | 123.50106 | 8056 ft | 195 kts | 266° |
| 2026-04-15 09:25 | 7.10439 | 123.48287 | 8056 ft | 195 kts | 267° |
| 2026-04-15 09:25 | 7.10356 | 123.47384 | 8053 ft | 196 kts | 268° |
| 2026-04-15 09:25 | 7.10240 | 123.46019 | 8053 ft | 196 kts | 268° |
| 2026-04-15 09:25 | 7.10122 | 123.44651 | 8054 ft | 196 kts | 268° |
| 2026-04-15 09:26 | 7.10004 | 123.43300 | 8054 ft | 196 kts | 267° |
| 2026-04-15 09:26 | 7.09885 | 123.41930 | 8054 ft | 196 kts | 267° |
| 2026-04-15 09:26 | 7.09766 | 123.40564 | 8055 ft | 196 kts | 268° |
| 2026-04-15 09:26 | 7.09647 | 123.39197 | 8052 ft | 196 kts | 268° |
| 2026-04-15 09:27 | 7.09527 | 123.37829 | 8054 ft | 196 kts | 268° |
| 2026-04-15 09:27 | 7.09409 | 123.36467 | 8054 ft | 195 kts | 267° |
| 2026-04-15 09:27 | 7.09292 | 123.35104 | 8054 ft | 195 kts | 268° |
| 2026-04-15 09:27 | 7.09173 | 123.33742 | 8050 ft | 195 kts | 267° |
| 2026-04-15 09:28 | 7.09054 | 123.32380 | 8052 ft | 195 kts | 268° |
| 2026-04-15 09:28 | 7.08935 | 123.31018 | 8050 ft | 195 kts | 267° |
| 2026-04-15 09:28 | 7.08818 | 123.29656 | 8050 ft | 195 kts | 268° |
| 2026-04-15 09:28 | 7.08700 | 123.28293 | 8052 ft | 196 kts | 268° |
| 2026-04-15 09:29 | 7.08579 | 123.26924 | 8050 ft | 196 kts | 267° |
| 2026-04-15 09:29 | 7.08460 | 123.25549 | 8048 ft | 198 kts | 266° |
| 2026-04-15 09:29 | 7.08340 | 123.24164 | 8054 ft | 199 kts | 268° |
| 2026-04-15 09:29 | 7.08219 | 123.22772 | 8053 ft | 200 kts | 267° |
| 2026-04-15 09:30 | 7.08099 | 123.21391 | 8055 ft | 200 kts | 268° |
| 2026-04-15 09:30 | 7.07977 | 123.19991 | 8053 ft | 201 kts | 267° |
| 2026-04-15 09:30 | 7.07854 | 123.18586 | 8052 ft | 202 kts | 268° |
| 2026-04-15 09:30 | 7.07734 | 123.17179 | 8052 ft | 201 kts | 267° |
| 2026-04-15 09:31 | 7.07611 | 123.15777 | 8055 ft | 201 kts | 267° |
| 2026-04-15 09:31 | 7.07487 | 123.14374 | 8054 ft | 201 kts | 268° |
| 2026-04-15 09:31 | 7.07366 | 123.12969 | 8054 ft | 201 kts | 267° |
| 2026-04-15 09:31 | 7.07244 | 123.11559 | 8051 ft | 202 kts | 268° |
| 2026-04-15 09:32 | 7.07122 | 123.10157 | 8052 ft | 202 kts | 268° |
| 2026-04-15 09:32 | 7.06999 | 123.08751 | 8053 ft | 201 kts | 267° |
| 2026-04-15 09:32 | 7.06879 | 123.07361 | 8054 ft | 202 kts | 268° |
| 2026-04-15 09:32 | 7.06757 | 123.05956 | 8054 ft | 202 kts | 268° |
| 2026-04-15 09:33 | 7.06633 | 123.04544 | 8051 ft | 202 kts | 268° |
| 2026-04-15 09:33 | 7.06511 | 123.03132 | 8054 ft | 202 kts | 268° |
| 2026-04-15 09:33 | 7.06387 | 123.01719 | 8058 ft | 202 kts | 267° |
| 2026-04-15 09:33 | 7.06264 | 123.00308 | 8059 ft | 202 kts | 268° |
| 2026-04-15 09:34 | 7.06141 | 122.98897 | 8059 ft | 202 kts | 267° |
| 2026-04-15 09:34 | 7.06020 | 122.97484 | 8054 ft | 202 kts | 268° |
| 2026-04-15 09:34 | 7.05897 | 122.96072 | 8054 ft | 202 kts | 267° |
| 2026-04-15 09:34 | 7.05773 | 122.94662 | 8051 ft | 202 kts | 266° |
| 2026-04-15 09:35 | 7.05650 | 122.93256 | 8053 ft | 202 kts | 267° |
| 2026-04-15 09:35 | 7.05529 | 122.91851 | 8052 ft | 201 kts | 268° |
| 2026-04-15 09:35 | 7.05406 | 122.90448 | 8051 ft | 201 kts | 267° |
| 2026-04-15 09:35 | 7.05284 | 122.89049 | 8052 ft | 201 kts | 266° |
| 2026-04-15 09:36 | 7.05163 | 122.87652 | 8049 ft | 200 kts | 267° |
| 2026-04-15 09:36 | 7.04827 | 122.86296 | 8044 ft | 203 kts | 240° |
| 2026-04-15 09:36 | 7.03842 | 122.85314 | 8044 ft | 203 kts | 220° |
| 2026-04-15 09:36 | 7.02875 | 122.84277 | 8051 ft | 203 kts | 234° |
| 2026-04-15 09:37 | 7.02162 | 122.83056 | 8049 ft | 202 kts | 246° |
| 2026-04-15 09:37 | 7.01784 | 122.81706 | 8048 ft | 200 kts | 263° |
| 2026-04-15 09:37 | 7.01599 | 122.80337 | 8052 ft | 199 kts | 264° |
| 2026-04-15 09:37 | 7.01427 | 122.78956 | 8051 ft | 199 kts | 264° |
| 2026-04-15 09:38 | 7.01260 | 122.77575 | 8056 ft | 199 kts | 265° |
| 2026-04-15 09:38 | 7.01093 | 122.76192 | 8053 ft | 198 kts | 264° |
| 2026-04-15 09:38 | 7.00925 | 122.74815 | 8053 ft | 199 kts | 265° |
| 2026-04-15 09:38 | 7.00756 | 122.73433 | 8053 ft | 199 kts | 264° |
| 2026-04-15 09:39 | 7.00588 | 122.72049 | 8054 ft | 199 kts | 265° |
| 2026-04-15 09:39 | 7.00418 | 122.70658 | 8029 ft | 201 kts | 264° |
| 2026-04-15 09:39 | 7.00247 | 122.69263 | 8033 ft | 200 kts | 264° |
| 2026-04-15 09:39 | 7.00076 | 122.67876 | 7977 ft | 200 kts | 264° |
| 2026-04-15 09:40 | 6.99906 | 122.66493 | 7921 ft | 199 kts | 264° |
| 2026-04-15 09:40 | 6.99738 | 122.65113 | 7860 ft | 199 kts | 264° |
| 2026-04-15 09:40 | 6.99572 | 122.63750 | 7800 ft | 199 kts | 264° |
| 2026-04-15 09:40 | 6.99404 | 122.62371 | 7743 ft | 198 kts | 264° |
| 2026-04-15 09:41 | 6.99236 | 122.60998 | 7675 ft | 198 kts | 264° |
| 2026-04-15 09:41 | 6.99068 | 122.59624 | 7622 ft | 197 kts | 264° |
| 2026-04-15 09:41 | 6.98901 | 122.58248 | 7564 ft | 198 kts | 264° |
| 2026-04-15 09:41 | 6.98732 | 122.56874 | 7488 ft | 199 kts | 264° |
| 2026-04-15 09:42 | 6.98560 | 122.55472 | 7301 ft | 204 kts | 264° |
| 2026-04-15 09:42 | 6.98386 | 122.54041 | 7118 ft | 208 kts | 264° |
| 2026-04-15 09:42 | 6.98213 | 122.52609 | 6935 ft | 202 kts | 265° |
| 2026-04-15 09:42 | 6.98045 | 122.51224 | 6740 ft | 197 kts | 264° |
| 2026-04-15 09:43 | 6.97879 | 122.49869 | 6549 ft | 194 kts | 264° |
| 2026-04-15 09:43 | 6.97716 | 122.48533 | 6363 ft | 191 kts | 265° |
| 2026-04-15 09:43 | 6.97557 | 122.47226 | 6174 ft | 190 kts | 264° |
| 2026-04-15 09:43 | 6.97391 | 122.45859 | 5985 ft | 202 kts | 264° |
| 2026-04-15 09:44 | 6.97217 | 122.44428 | 5800 ft | 209 kts | 264° |
| 2026-04-15 09:44 | 6.97037 | 122.42959 | 5622 ft | 213 kts | 264° |
| 2026-04-15 09:44 | 6.96855 | 122.41465 | 5435 ft | 216 kts | 264° |
| 2026-04-15 09:44 | 6.96671 | 122.39954 | 5249 ft | 218 kts | 264° |
| 2026-04-15 09:45 | 6.96485 | 122.38424 | 5074 ft | 222 kts | 264° |
| 2026-04-15 09:45 | 6.96298 | 122.36889 | 4960 ft | 221 kts | 264° |
| 2026-04-15 09:45 | 6.96112 | 122.35371 | 4845 ft | 221 kts | 264° |
| 2026-04-15 09:45 | 6.95924 | 122.33835 | 4726 ft | 221 kts | 264° |
| 2026-04-15 09:46 | 6.95737 | 122.32299 | 4608 ft | 221 kts | 264° |
| 2026-04-15 09:46 | 6.95548 | 122.30756 | 4482 ft | 221 kts | 264° |
| 2026-04-15 09:46 | 6.95361 | 122.29219 | 4368 ft | 221 kts | 264° |
| 2026-04-15 09:46 | 6.95174 | 122.27683 | 4244 ft | 221 kts | 264° |
| 2026-04-15 09:47 | 6.94986 | 122.26149 | 4120 ft | 221 kts | 264° |
| 2026-04-15 09:47 | 6.94800 | 122.24620 | 4062 ft | 218 kts | 263° |
| 2026-04-15 09:47 | 6.94619 | 122.23141 | 4063 ft | 214 kts | 263° |
| 2026-04-15 09:47 | 6.94438 | 122.21666 | 4063 ft | 211 kts | 264° |
| 2026-04-15 09:48 | 6.94260 | 122.20205 | 4061 ft | 209 kts | 263° |
| 2026-04-15 09:48 | 6.94083 | 122.18756 | 4063 ft | 208 kts | 264° |
| 2026-04-15 09:48 | 6.93907 | 122.17318 | 4066 ft | 204 kts | 263° |
| 2026-04-15 09:48 | 6.93739 | 122.15935 | 4063 ft | 194 kts | 263° |
| 2026-04-15 09:49 | 6.93584 | 122.14678 | 4060 ft | 176 kts | 264° |
| 2026-04-15 09:49 | 6.93434 | 122.13455 | 4060 ft | 176 kts | 264° |
| 2026-04-15 09:49 | 6.93285 | 122.12229 | 4065 ft | 176 kts | 263° |
| 2026-04-15 09:49 | 6.93135 | 122.11004 | 4063 ft | 176 kts | 263° |
| 2026-04-15 09:50 | 6.92986 | 122.09780 | 4063 ft | 176 kts | 263° |
| 2026-04-15 09:50 | 6.92836 | 122.08555 | 4068 ft | 176 kts | 263° |
| 2026-04-15 09:50 | 6.92687 | 122.07329 | 4066 ft | 177 kts | 263° |
| 2026-04-15 09:50 | 6.92536 | 122.06102 | 4066 ft | 176 kts | 263° |
| 2026-04-15 09:51 | 6.92386 | 122.04883 | 4068 ft | 175 kts | 262° |
| 2026-04-15 09:51 | 6.92039 | 122.03707 | 4021 ft | 177 kts | 244° |
| 2026-04-15 09:51 | 6.91486 | 122.02605 | 4052 ft | 174 kts | 244° |
| 2026-04-15 09:51 | 6.90963 | 122.01509 | 4041 ft | 175 kts | 244° |
| 2026-04-15 09:52 | 6.90424 | 122.00411 | 4035 ft | 175 kts | 244° |
| 2026-04-15 09:52 | 6.89908 | 121.99318 | 4049 ft | 173 kts | 244° |
| 2026-04-15 09:52 | 6.89448 | 121.98232 | 4146 ft | 169 kts | 256° |
| 2026-04-15 09:52 | 6.89400 | 121.97053 | 4171 ft | 168 kts | 281° |
| 2026-04-15 09:53 | 6.89957 | 121.96019 | 4093 ft | 173 kts | 319° |
| 2026-04-15 09:53 | 6.91046 | 121.95545 | 4060 ft | 172 kts | 357° |
| 2026-04-15 09:53 | 6.92177 | 121.95844 | 4020 ft | 172 kts | 38° |
| 2026-04-15 09:53 | 6.92816 | 121.96835 | 4017 ft | 171 kts | 76° |
| 2026-04-15 09:54 | 6.92842 | 121.98018 | 4066 ft | 167 kts | 95° |
| 2026-04-15 09:54 | 6.92722 | 121.99167 | 4129 ft | 164 kts | 95° |
| 2026-04-15 09:54 | 6.92622 | 122.00309 | 4102 ft | 167 kts | 93° |
| 2026-04-15 09:54 | 6.92597 | 122.01476 | 4130 ft | 166 kts | 89° |
| 2026-04-15 09:55 | 6.92609 | 122.02639 | 4130 ft | 167 kts | 88° |
| 2026-04-15 09:55 | 6.92610 | 122.03811 | 4123 ft | 168 kts | 92° |
| 2026-04-15 09:55 | 6.92542 | 122.04978 | 4163 ft | 166 kts | 92° |
| 2026-04-15 09:55 | 6.92421 | 122.06142 | 4124 ft | 170 kts | 104° |
| 2026-04-15 09:56 | 6.91838 | 122.07176 | 4087 ft | 173 kts | 133° |
| 2026-04-15 09:56 | 6.90819 | 122.07776 | 4108 ft | 173 kts | 165° |
| 2026-04-15 09:56 | 6.88576 | 122.07226 | 4068 ft | 177 kts | 221° |
| 2026-04-15 09:57 | 6.87856 | 122.06223 | 4044 ft | 176 kts | 248° |
| 2026-04-15 09:57 | 6.87664 | 122.05027 | 4060 ft | 174 kts | 273° |
| 2026-04-15 09:57 | 6.87786 | 122.03820 | 4100 ft | 172 kts | 276° |
| 2026-04-15 09:57 | 6.87873 | 122.02626 | 4115 ft | 172 kts | 274° |
| 2026-04-15 09:58 | 6.87940 | 122.01416 | 4101 ft | 173 kts | 275° |
| 2026-04-15 09:58 | 6.88058 | 122.00218 | 4148 ft | 171 kts | 276° |
| 2026-04-15 09:58 | 6.88283 | 121.99044 | 4087 ft | 175 kts | 294° |
| 2026-04-15 09:58 | 6.89044 | 121.98101 | 4066 ft | 174 kts | 326° |
| 2026-04-15 09:59 | 6.90154 | 121.97700 | 4058 ft | 172 kts | 355° |
| 2026-04-15 09:59 | 6.91314 | 121.97858 | 4081 ft | 170 kts | 22° |
| 2026-04-15 09:59 | 6.92256 | 121.98553 | 4080 ft | 169 kts | 52° |
| 2026-04-15 09:59 | 6.92731 | 121.99632 | 4019 ft | 171 kts | 81° |
| 2026-04-15 10:00 | 6.92676 | 122.00818 | 4075 ft | 167 kts | 98° |
| 2026-04-15 10:00 | 6.92529 | 122.01959 | 4131 ft | 165 kts | 95° |
| 2026-04-15 10:00 | 6.92451 | 122.03131 | 4066 ft | 169 kts | 92° |
| 2026-04-15 10:00 | 6.92407 | 122.04301 | 4136 ft | 165 kts | 90° |
| 2026-04-15 10:01 | 6.92383 | 122.05459 | 4140 ft | 164 kts | 90° |
| 2026-04-15 10:01 | 6.92374 | 122.06615 | 4037 ft | 166 kts | 89° |
| 2026-04-15 10:01 | 6.92315 | 122.07772 | 3940 ft | 168 kts | 95° |
| 2026-04-15 10:01 | 6.92187 | 122.08933 | 3902 ft | 164 kts | 96° |
| 2026-04-15 10:02 | 6.92060 | 122.10063 | 3750 ft | 161 kts | 95° |
| 2026-04-15 10:02 | 6.91966 | 122.11186 | 3590 ft | 161 kts | 93° |
| 2026-04-15 10:02 | 6.91904 | 122.12317 | 3408 ft | 162 kts | 92° |
| 2026-04-15 10:02 | 6.91825 | 122.13418 | 3365 ft | 151 kts | 95° |
| 2026-04-15 10:03 | 6.91701 | 122.14419 | 3296 ft | 143 kts | 98° |
| 2026-04-15 10:03 | 6.91560 | 122.15417 | 3142 ft | 144 kts | 97° |
| 2026-04-15 10:03 | 6.91321 | 122.16381 | 3025 ft | 142 kts | 121° |
| 2026-04-15 10:03 | 6.90631 | 122.17063 | 2989 ft | 136 kts | 142° |
| 2026-04-15 10:04 | 6.89937 | 122.17685 | 2993 ft | 131 kts | 137° |
| 2026-04-15 10:04 | 6.89245 | 122.18307 | 2883 ft | 135 kts | 140° |
| 2026-04-15 10:04 | 6.88530 | 122.18910 | 2846 ft | 133 kts | 141° |
| 2026-04-15 10:04 | 6.87819 | 122.19513 | 2776 ft | 134 kts | 139° |
| 2026-04-15 10:05 | 6.87156 | 122.20153 | 2774 ft | 131 kts | 136° |
| 2026-04-15 10:05 | 6.86667 | 122.20900 | 2727 ft | 132 kts | 100° |
| 2026-04-15 10:05 | 6.86895 | 122.21784 | 2625 ft | 137 kts | 52° |
| 2026-04-15 10:05 | 6.87681 | 122.22258 | 2604 ft | 134 kts | 6° |
| 2026-04-15 10:06 | 6.88565 | 122.22018 | 2498 ft | 135 kts | 322° |
| 2026-04-15 10:06 | 6.89294 | 122.21424 | 2414 ft | 136 kts | 320° |
| 2026-04-15 10:06 | 6.90019 | 122.20835 | 2319 ft | 136 kts | 313° |
| 2026-04-15 10:06 | 6.90480 | 122.20031 | 2248 ft | 133 kts | 286° |
| 2026-04-15 10:07 | 6.90702 | 122.19133 | 2224 ft | 130 kts | 282° |
| 2026-04-15 10:07 | 6.90993 | 122.18251 | 2071 ft | 136 kts | 288° |
| 2026-04-15 10:07 | 6.91238 | 122.17327 | 1952 ft | 136 kts | 276° |
| 2026-04-15 10:07 | 6.91438 | 122.16394 | 1893 ft | 135 kts | 283° |
| 2026-04-15 10:08 | 6.91602 | 122.15470 | 1825 ft | 134 kts | 280° |
| 2026-04-15 10:08 | 6.91773 | 122.14561 | 1780 ft | 134 kts | 277° |
| 2026-04-15 10:08 | 6.91898 | 122.13692 | 1696 ft | 118 kts | 275° |
| 2026-04-15 10:08 | 6.91954 | 122.12886 | 1524 ft | 115 kts | 270° |
| 2026-04-15 10:09 | 6.92002 | 122.12085 | 1412 ft | 114 kts | 270° |
| 2026-04-15 10:09 | 6.92042 | 122.11272 | 1229 ft | 117 kts | 276° |
| 2026-04-15 10:09 | 6.92105 | 122.10462 | 1109 ft | 117 kts | 272° |
| 2026-04-15 10:09 | 6.92168 | 122.09649 | 981 ft | 114 kts | 272° |
| 2026-04-15 10:10 | 6.92211 | 122.08867 | 799 ft | 113 kts | 270° |
| 2026-04-15 10:10 | 6.92200 | 122.08082 | 532 ft | 113 kts | 262° |
| 2026-04-15 10:10 | 6.92170 | 122.07285 | 200 ft | 110 kts | 271° |
| 2026-04-15 10:10 | 6.92192 | 122.06553 | 34 ft | 92 kts | 271° |
| 2026-04-15 10:11 | 6.92229 | 122.06034 | 30 ft | 56 kts | 275° |
| 2026-04-15 10:11 | 6.92230 | 122.05916 | 30 ft | 7 kts | 297° |
| 2026-04-15 10:11 | 6.92179 | 122.06017 | 30 ft | 24 kts | 142° |
| 2026-04-15 10:11 | 6.92097 | 122.06060 | 30 ft | 21 kts | 155° |
| 2026-04-15 10:12 | 6.92058 | 122.06078 | 30 ft | 0 kts | 152° |